createdAt,value
2023-10-03T00:01:53.646Z,6.00
2023-10-03T00:06:55.322Z,8.00
2023-10-03T00:11:57.002Z,6.70
2023-10-03T00:16:59.086Z,7.20
2023-10-03T00:22:00.859Z,6.90
2023-10-03T00:27:05.812Z,7.60
2023-10-03T00:32:08.868Z,8.60
2023-10-03T00:37:12.040Z,7.10
2023-10-03T00:42:13.714Z,8.10
2023-10-03T00:47:15.735Z,7.20
2023-10-03T00:52:17.476Z,7.40
2023-10-03T00:57:19.655Z,6.80
2023-10-03T01:02:22.764Z,4.90
2023-10-03T01:07:24.464Z,5.90
2023-10-03T01:12:26.428Z,8.40
2023-10-03T01:17:31.614Z,7.60
2023-10-03T01:22:34.296Z,6.60
2023-10-03T01:27:35.962Z,5.30
2023-10-03T01:32:44.220Z,7.80
2023-10-03T01:37:46.476Z,7.20
2023-10-03T01:42:48.637Z,7.70
2023-10-03T01:47:51.061Z,7.50
2023-10-03T01:52:53.761Z,5.50
2023-10-03T01:57:55.428Z,7.50
2023-10-03T02:03:05.813Z,7.10
2023-10-03T02:08:16.629Z,6.80
2023-10-03T02:13:20.602Z,6.80
2023-10-03T02:18:22.618Z,6.50
2023-10-03T02:23:26.129Z,6.80
2023-10-03T02:28:28.784Z,6.70
2023-10-03T02:33:30.790Z,6.10
2023-10-03T02:38:37.570Z,6.70
2023-10-03T02:43:43.089Z,6.90
2023-10-03T02:48:44.748Z,5.70
2023-10-03T02:53:46.985Z,6.20
2023-10-03T02:58:48.822Z,6.30
2023-10-03T03:03:51.145Z,6.40
2023-10-03T03:08:53.245Z,5.30
2023-10-03T03:13:54.973Z,5.80
2023-10-03T03:18:56.671Z,6.60
2023-10-03T03:24:01.116Z,6.40
2023-10-03T03:29:07.475Z,6.20
2023-10-03T03:34:09.188Z,6.20
2023-10-03T03:39:17.154Z,6.90
2023-10-03T03:44:20.205Z,6.80
2023-10-03T03:49:23.907Z,6.60
2023-10-03T03:54:26.520Z,6.40
2023-10-03T03:59:28.740Z,6.90
2023-10-03T04:04:30.485Z,6.20
2023-10-03T04:09:32.732Z,6.40
2023-10-03T04:14:34.553Z,6.70
2023-10-03T04:19:36.518Z,7.40
2023-10-03T04:24:38.297Z,7.20
2023-10-03T04:29:40.007Z,7.30
2023-10-03T04:34:42.167Z,7.50
2023-10-03T04:39:44.245Z,7.30
2023-10-03T04:44:45.964Z,7.40
2023-10-03T04:49:47.698Z,7.50
2023-10-03T04:54:49.373Z,7.00
2023-10-03T04:59:51.376Z,7.00
2023-10-03T05:04:53.133Z,7.40
2023-10-03T05:09:55.119Z,5.20
2023-10-03T05:14:56.734Z,6.80
2023-10-03T05:19:59.897Z,7.20
2023-10-03T05:25:02.099Z,7.00
2023-10-03T05:30:06.108Z,6.80
2023-10-03T05:35:09.501Z,7.20
2023-10-03T05:40:19.713Z,6.40
2023-10-03T05:45:21.525Z,7.10
2023-10-03T05:50:24.524Z,7.50
2023-10-03T05:55:26.378Z,7.60
2023-10-03T06:00:28.457Z,7.40
2023-10-03T06:05:30.105Z,8.10
2023-10-03T06:10:31.716Z,7.10
2023-10-03T06:15:36.973Z,7.20
2023-10-03T06:20:39.097Z,6.00
2023-10-03T06:25:40.841Z,6.90
2023-10-03T06:30:42.766Z,6.20
2023-10-03T06:35:44.512Z,6.80
2023-10-03T06:40:47.038Z,5.30
2023-10-03T06:45:48.771Z,6.20
2023-10-03T06:50:51.688Z,5.60
2023-10-03T06:55:54.369Z,5.50
2023-10-03T07:00:56.531Z,5.70
2023-10-03T07:05:59.313Z,6.10
2023-10-03T07:11:01.870Z,5.70
2023-10-03T07:16:04.570Z,5.30
2023-10-03T07:21:06.360Z,5.30
2023-10-03T07:26:08.234Z,5.50
2023-10-03T07:31:13.401Z,4.90
2023-10-03T07:36:17.917Z,4.50
2023-10-03T07:41:20.785Z,4.90
2023-10-03T07:46:24.596Z,4.30
2023-10-03T07:51:30.671Z,4.20
2023-10-03T07:56:34.110Z,4.30
2023-10-03T08:01:57.679Z,5.00
2023-10-03T08:07:01.604Z,4.30
2023-10-03T08:12:12.302Z,4.30
2023-10-03T08:17:16.624Z,4.30
2023-10-03T08:22:20.700Z,4.00
2023-10-03T08:27:23.104Z,4.00
2023-10-03T08:32:28.335Z,4.20
2023-10-03T08:37:30.147Z,4.30
2023-10-03T08:42:35.056Z,4.20
2023-10-03T08:47:39.336Z,4.10
2023-10-03T08:52:49.719Z,4.20
2023-10-03T08:57:51.697Z,4.10
2023-10-03T09:03:09.874Z,3.60
2023-10-03T09:08:16.850Z,3.70
2023-10-03T09:13:26.831Z,4.00
2023-10-03T09:18:41.372Z,4.10
2023-10-03T09:24:27.338Z,4.10
2023-10-03T09:29:32.556Z,4.00
2023-10-03T09:34:40.809Z,4.20
2023-10-03T09:39:52.216Z,4.50
2023-10-03T09:45:00.678Z,4.60
2023-10-03T09:50:06.943Z,4.30
2023-10-03T09:55:21.722Z,4.80
2023-10-03T10:00:26.055Z,4.80
2023-10-03T10:05:29.849Z,4.60
2023-10-03T10:10:34.059Z,4.80
2023-10-03T10:16:01.749Z,4.90
2023-10-03T10:21:38.473Z,4.80
2023-10-03T10:26:40.622Z,4.40
2023-10-03T10:31:45.737Z,5.10
2023-10-03T10:37:03.159Z,5.30
2023-10-03T10:42:10.223Z,5.50
2023-10-03T10:47:14.939Z,5.10
2023-10-03T10:52:20.099Z,5.30
2023-10-03T10:57:27.391Z,5.40
2023-10-03T11:02:34.146Z,5.80
2023-10-03T11:07:37.623Z,4.90
2023-10-03T11:12:39.356Z,5.10
2023-10-03T11:17:48.985Z,4.80
2023-10-03T11:22:50.837Z,5.40
2023-10-03T11:27:52.581Z,4.80
2023-10-03T11:33:02.044Z,4.60
2023-10-03T11:38:07.238Z,4.70
2023-10-03T11:43:08.907Z,4.80
2023-10-03T11:48:19.825Z,4.60
2023-10-03T11:53:22.398Z,4.80
2023-10-03T11:58:24.192Z,4.90
2023-10-03T12:03:25.843Z,4.60
2023-10-03T12:08:28.656Z,5.00
2023-10-03T12:13:30.533Z,4.80
2023-10-03T12:18:32.322Z,4.90
2023-10-03T12:23:35.741Z,5.10
2023-10-03T12:28:37.447Z,4.60
2023-10-03T12:33:39.192Z,4.70
2023-10-03T12:38:40.922Z,4.40
2023-10-03T12:43:47.040Z,4.10
2023-10-03T12:48:48.838Z,4.50
2023-10-03T12:53:52.963Z,4.20
2023-10-03T12:58:57.906Z,5.10
2023-10-03T13:03:59.967Z,4.70
2023-10-03T13:09:01.892Z,4.80
2023-10-03T13:14:04.929Z,4.10
2023-10-03T13:19:08.168Z,4.50
2023-10-03T13:24:10.605Z,4.40
2023-10-03T13:29:12.715Z,4.10
2023-10-03T13:34:15.081Z,4.20
2023-10-03T13:39:19.829Z,4.10
2023-10-03T13:44:21.695Z,4.70
2023-10-03T13:49:25.133Z,3.90
2023-10-03T13:54:31.090Z,4.20
2023-10-03T13:59:33.306Z,4.10
2023-10-03T14:04:37.202Z,3.80
2023-10-03T14:09:40.103Z,4.30
2023-10-03T14:14:43.070Z,4.40
2023-10-03T14:19:45.000Z,4.10
2023-10-03T14:24:47.253Z,4.10
2023-10-03T14:29:48.860Z,3.60
2023-10-03T14:34:51.965Z,4.30
2023-10-03T14:39:53.645Z,4.10
2023-10-03T14:44:55.341Z,4.00
2023-10-03T14:49:57.911Z,3.50
2023-10-03T14:54:59.905Z,4.00
2023-10-03T15:00:02.264Z,3.80
2023-10-03T15:05:06.847Z,4.00
2023-10-03T15:10:10.049Z,3.40
2023-10-03T15:15:12.823Z,4.30
2023-10-03T15:20:17.457Z,4.30
2023-10-03T15:25:19.582Z,4.20
2023-10-03T15:30:21.323Z,4.00
2023-10-03T15:35:23.448Z,4.10
2023-10-03T15:40:28.291Z,4.00
2023-10-03T15:45:34.391Z,4.00
2023-10-03T15:50:37.079Z,3.80
2023-10-03T15:55:39.123Z,4.20
2023-10-03T16:00:41.566Z,4.20
2023-10-03T16:05:43.271Z,3.90
2023-10-03T16:10:45.004Z,3.80
2023-10-03T16:15:48.085Z,4.20
2023-10-03T16:20:50.014Z,4.70
2023-10-03T16:25:51.795Z,4.60
2023-10-03T16:30:53.676Z,4.80
2023-10-03T16:35:57.326Z,4.70
2023-10-03T16:40:59.061Z,4.00
2023-10-03T16:46:04.042Z,4.70
2023-10-03T16:51:05.852Z,4.70
2023-10-03T16:56:08.483Z,4.40
2023-10-03T17:01:10.287Z,4.80
2023-10-03T17:06:12.241Z,5.10
2023-10-03T17:11:14.529Z,5.30
2023-10-03T17:16:16.410Z,4.90
2023-10-03T17:21:21.695Z,5.10
2023-10-03T17:26:23.857Z,5.00
2023-10-03T17:31:25.909Z,5.20
2023-10-03T17:36:27.899Z,5.90
2023-10-03T17:41:29.606Z,5.20
2023-10-03T17:46:32.594Z,5.50
2023-10-03T17:51:35.320Z,5.50
2023-10-03T17:56:37.090Z,5.90
2023-10-03T18:01:38.842Z,5.30
2023-10-03T18:06:40.681Z,5.90
2023-10-03T18:11:42.527Z,5.40
2023-10-03T18:16:44.508Z,5.60
2023-10-03T18:21:46.742Z,5.80
2023-10-03T18:26:49.711Z,6.00
2023-10-03T18:31:51.386Z,5.70
2023-10-03T18:36:53.058Z,5.90
2023-10-03T18:41:54.778Z,5.60
2023-10-03T18:46:56.674Z,5.80
2023-10-03T18:51:58.493Z,7.40
2023-10-03T18:57:00.638Z,8.10
2023-10-03T19:02:02.403Z,7.40
2023-10-03T19:07:05.016Z,7.40
2023-10-03T19:12:07.164Z,6.80
2023-10-03T19:17:09.022Z,6.50
2023-10-03T19:22:11.413Z,7.20
2023-10-03T19:27:13.109Z,6.60
2023-10-03T19:32:18.118Z,6.90
2023-10-03T19:37:19.870Z,6.10
2023-10-03T19:42:22.636Z,6.80
2023-10-03T19:47:24.946Z,7.40
2023-10-03T19:52:26.590Z,7.00
2023-10-03T19:57:28.346Z,6.30
2023-10-03T20:02:29.999Z,5.40
2023-10-03T20:07:31.717Z,5.00
2023-10-03T20:12:35.444Z,5.50
2023-10-03T20:17:37.017Z,5.30
2023-10-03T20:22:42.735Z,6.30
2023-10-03T20:27:45.181Z,5.50
2023-10-03T20:32:46.897Z,6.40
2023-10-03T20:37:48.835Z,5.10
2023-10-03T20:42:50.921Z,5.50
2023-10-03T20:47:53.102Z,5.80
2023-10-03T20:52:55.002Z,5.40
2023-10-03T20:57:56.961Z,6.20
2023-10-03T21:02:58.908Z,5.00
2023-10-03T21:08:02.830Z,3.50
2023-10-03T21:13:04.661Z,3.40
2023-10-03T21:18:09.195Z,3.40
2023-10-03T21:23:10.889Z,3.50
2023-10-03T21:28:13.171Z,3.00
2023-10-03T21:33:14.909Z,2.50
2023-10-03T21:38:17.664Z,2.30
2023-10-03T21:43:19.297Z,2.20
2023-10-03T21:48:21.869Z,2.10
2023-10-03T21:53:23.608Z,2.00
2023-10-03T21:58:25.286Z,2.20
2023-10-03T22:03:28.190Z,1.70
2023-10-03T22:08:32.344Z,1.90
2023-10-03T22:13:34.094Z,1.70
2023-10-03T22:18:38.470Z,1.50
2023-10-03T22:23:40.304Z,1.50
2023-10-03T22:28:41.983Z,1.50
2023-10-03T22:33:44.087Z,1.50
2023-10-03T22:38:47.078Z,1.30
2023-10-03T22:43:49.166Z,1.40
2023-10-03T22:48:51.311Z,1.30
2023-10-03T22:53:53.166Z,1.20
2023-10-03T22:58:55.150Z,1.70
2023-10-03T23:03:56.848Z,1.10
2023-10-03T23:08:58.561Z,1.40
2023-10-03T23:14:00.852Z,1.00
2023-10-03T23:19:03.831Z,1.00
2023-10-03T23:24:10.509Z,1.20
2023-10-03T23:29:12.433Z,1.40
2023-10-03T23:34:16.507Z,1.30
2023-10-03T23:39:19.944Z,1.30
2023-10-03T23:44:21.664Z,1.20
2023-10-03T23:49:23.595Z,1.20
2023-10-03T23:54:25.247Z,1.20
2023-10-03T23:59:27.204Z,1.30
